createdAt,value
2017-12-29T00:00:42.292Z,0.73
2017-12-29T00:01:46.945Z,0.75
2017-12-29T00:02:51.815Z,0.80
2017-12-29T00:03:56.683Z,0.82
2017-12-29T00:05:01.395Z,0.75
2017-12-29T00:06:07.023Z,0.73
2017-12-29T00:07:11.883Z,0.72
2017-12-29T00:08:16.660Z,0.74
2017-12-29T00:09:21.691Z,0.87
2017-12-29T00:10:26.482Z,0.77
2017-12-29T00:11:31.680Z,0.73
2017-12-29T00:12:36.486Z,0.75
2017-12-29T00:13:41.338Z,0.85
2017-12-29T00:14:46.007Z,0.84
2017-12-29T00:15:50.989Z,0.80
2017-12-29T00:16:55.664Z,0.89
2017-12-29T00:18:00.367Z,0.76
2017-12-29T00:19:05.041Z,0.73
2017-12-29T00:20:09.716Z,0.89
2017-12-29T00:21:14.977Z,0.78
2017-12-29T00:22:20.087Z,0.76
2017-12-29T00:23:24.715Z,0.80
2017-12-29T00:24:29.423Z,0.82
2017-12-29T00:25:34.057Z,0.72
2017-12-29T00:26:38.783Z,0.73
2017-12-29T00:27:43.862Z,0.74
2017-12-29T00:28:49.363Z,0.80
2017-12-29T00:29:54.160Z,0.79
2017-12-29T00:30:58.893Z,0.87
2017-12-29T00:32:03.495Z,0.88
2017-12-29T00:33:08.151Z,0.81
2017-12-29T00:34:12.701Z,0.86
2017-12-29T00:35:17.570Z,0.85
2017-12-29T00:36:22.131Z,0.66
2017-12-29T00:37:26.680Z,0.61
2017-12-29T00:38:31.523Z,0.65
2017-12-29T00:39:36.396Z,0.63
2017-12-29T00:40:41.839Z,0.58
2017-12-29T00:41:46.750Z,0.57
2017-12-29T00:42:51.386Z,0.47
2017-12-29T00:43:56.127Z,0.41
2017-12-29T00:45:00.847Z,0.40
2017-12-29T00:46:05.646Z,0.49
2017-12-29T00:47:10.454Z,0.50
2017-12-29T00:48:15.572Z,0.29
2017-12-29T00:49:21.188Z,0.31
2017-12-29T00:50:25.947Z,0.32
2017-12-29T00:51:30.617Z,0.28
2017-12-29T00:52:35.382Z,0.30
2017-12-29T00:53:40.085Z,0.34
2017-12-29T00:54:45.197Z,0.32
2017-12-29T00:55:49.974Z,0.37
2017-12-29T00:56:55.312Z,0.32
2017-12-29T00:58:00.089Z,0.38
2017-12-29T00:59:04.797Z,0.36
2017-12-29T01:00:09.524Z,0.49
2017-12-29T01:01:14.463Z,0.42
2017-12-29T01:02:19.140Z,0.47
2017-12-29T01:03:23.896Z,0.37
2017-12-29T01:04:28.621Z,0.41
2017-12-29T01:05:33.418Z,0.44
2017-12-29T01:06:38.123Z,0.40
2017-12-29T01:07:43.100Z,0.37
2017-12-29T01:08:48.785Z,0.25
2017-12-29T01:09:53.522Z,0.34
2017-12-29T01:10:58.259Z,0.38
2017-12-29T01:12:02.984Z,0.41
2017-12-29T01:13:08.593Z,0.43
2017-12-29T01:14:13.590Z,0.40
2017-12-29T01:15:18.242Z,0.42
2017-12-29T01:16:23.024Z,0.31
2017-12-29T01:17:27.777Z,0.37
2017-12-29T01:18:32.428Z,0.46
2017-12-29T01:19:37.366Z,0.50
2017-12-29T01:20:42.188Z,0.56
2017-12-29T01:21:47.017Z,0.52
2017-12-29T01:22:51.793Z,0.48
2017-12-29T01:23:56.627Z,0.41
2017-12-29T01:25:01.405Z,0.39
2017-12-29T01:26:06.532Z,0.46
2017-12-29T01:27:11.301Z,0.44
2017-12-29T01:28:16.081Z,0.41
2017-12-29T01:29:20.687Z,0.51
2017-12-29T01:30:25.408Z,0.40
2017-12-29T01:31:30.005Z,0.41
2017-12-29T01:32:35.083Z,0.42
2017-12-29T01:33:39.873Z,0.43
2017-12-29T01:34:44.382Z,0.44
2017-12-29T01:35:50.007Z,0.47
2017-12-29T01:36:54.623Z,0.46
2017-12-29T01:37:59.188Z,0.55
2017-12-29T01:39:04.686Z,0.43
2017-12-29T01:40:09.255Z,0.39
2017-12-29T01:41:14.026Z,0.46
2017-12-29T01:42:18.665Z,0.50
2017-12-29T01:43:23.346Z,0.50
2017-12-29T01:44:28.054Z,0.47
2017-12-29T01:45:33.961Z,0.44
2017-12-29T01:46:38.599Z,0.44
2017-12-29T01:47:47.459Z,0.58
2017-12-29T01:48:52.129Z,0.65
2017-12-29T01:49:56.862Z,0.49
2017-12-29T01:51:01.539Z,0.45
2017-12-29T01:52:06.505Z,0.51
2017-12-29T01:53:11.267Z,0.47
2017-12-29T01:54:16.088Z,0.54
2017-12-29T01:55:20.844Z,0.50
2017-12-29T01:56:25.627Z,0.50
2017-12-29T01:57:30.322Z,0.53
2017-12-29T01:58:35.320Z,0.42
2017-12-29T01:59:39.837Z,0.42
2017-12-29T02:00:44.935Z,0.46
2017-12-29T02:01:49.450Z,0.49
2017-12-29T02:02:54.168Z,0.48
2017-12-29T02:03:58.885Z,0.39
2017-12-29T02:05:03.860Z,0.41
2017-12-29T02:06:08.545Z,0.46
2017-12-29T02:07:13.332Z,0.48
2017-12-29T02:08:17.989Z,0.40
2017-12-29T02:09:22.647Z,0.41
2017-12-29T02:10:27.324Z,0.45
2017-12-29T02:11:32.376Z,0.43
2017-12-29T02:12:37.064Z,0.36
2017-12-29T02:13:41.714Z,0.36
2017-12-29T02:14:46.375Z,0.43
2017-12-29T02:15:51.016Z,0.49
2017-12-29T02:16:55.724Z,0.45
2017-12-29T02:18:00.659Z,0.46
2017-12-29T02:19:05.214Z,0.38
2017-12-29T02:20:09.816Z,0.35
2017-12-29T02:21:14.667Z,0.37
2017-12-29T02:22:19.330Z,0.30
2017-12-29T02:23:23.985Z,0.29
2017-12-29T02:24:28.982Z,0.36
2017-12-29T02:25:33.657Z,0.26
2017-12-29T02:26:38.390Z,0.19
2017-12-29T02:27:43.022Z,0.28
2017-12-29T02:28:47.712Z,0.21
2017-12-29T02:29:52.401Z,0.30
2017-12-29T02:30:57.603Z,0.34
2017-12-29T02:32:02.326Z,0.31
2017-12-29T02:33:07.272Z,0.26
2017-12-29T02:34:11.980Z,0.35
2017-12-29T02:35:16.577Z,0.33
2017-12-29T02:36:21.285Z,0.37
2017-12-29T02:37:26.211Z,0.44
2017-12-29T02:38:30.957Z,0.34
2017-12-29T02:39:35.640Z,0.37
2017-12-29T02:40:40.443Z,0.27
2017-12-29T02:41:45.139Z,0.26
2017-12-29T02:42:49.826Z,0.30
2017-12-29T02:43:54.895Z,0.35
2017-12-29T02:44:59.643Z,0.34
2017-12-29T02:46:05.111Z,0.37
2017-12-29T02:47:22.903Z,0.33
2017-12-29T02:48:27.678Z,0.34
2017-12-29T02:49:32.402Z,0.30
2017-12-29T02:50:37.453Z,0.29
2017-12-29T02:51:42.236Z,0.31
2017-12-29T02:52:47.943Z,0.33
2017-12-29T02:53:52.689Z,0.38
2017-12-29T02:54:57.446Z,0.33
2017-12-29T02:56:02.329Z,0.31
2017-12-29T02:57:07.449Z,0.20
2017-12-29T02:58:12.212Z,0.26
2017-12-29T02:59:17.001Z,0.37
2017-12-29T03:00:21.762Z,0.36
2017-12-29T03:01:26.504Z,0.28
2017-12-29T03:02:31.347Z,0.25
2017-12-29T03:03:36.485Z,0.28
2017-12-29T03:04:41.265Z,0.25
2017-12-29T03:05:45.924Z,0.24
2017-12-29T03:06:50.644Z,0.23
2017-12-29T03:07:55.352Z,0.28
2017-12-29T03:09:00.090Z,0.41
2017-12-29T03:10:06.134Z,0.48
2017-12-29T03:11:10.862Z,0.48
2017-12-29T03:12:15.667Z,0.35
2017-12-29T03:13:20.454Z,0.32
2017-12-29T03:14:25.115Z,0.35
2017-12-29T03:15:29.918Z,0.27
2017-12-29T03:16:35.536Z,0.36
2017-12-29T03:17:40.318Z,0.39
2017-12-29T03:18:45.119Z,0.40
2017-12-29T03:19:49.959Z,0.40
2017-12-29T03:20:54.759Z,0.38
2017-12-29T03:21:59.524Z,0.27
2017-12-29T03:23:04.639Z,0.34
2017-12-29T03:24:09.502Z,0.31
2017-12-29T03:25:14.368Z,0.26
2017-12-29T03:26:19.158Z,0.25
2017-12-29T03:27:23.891Z,0.33
2017-12-29T03:28:28.699Z,0.31
2017-12-29T03:29:33.802Z,0.37
2017-12-29T03:30:38.523Z,0.32
2017-12-29T03:31:43.380Z,0.28
2017-12-29T03:32:48.373Z,0.31
2017-12-29T03:33:53.011Z,0.35
2017-12-29T03:34:58.301Z,0.35
2017-12-29T03:36:03.219Z,0.41
2017-12-29T03:37:07.836Z,0.43
2017-12-29T03:38:12.430Z,0.38
2017-12-29T03:39:17.203Z,0.41
2017-12-29T03:40:22.435Z,0.47
2017-12-29T03:41:27.417Z,0.49
2017-12-29T03:42:32.251Z,0.50
2017-12-29T03:43:37.050Z,0.45
2017-12-29T03:44:41.780Z,0.50
2017-12-29T03:45:46.541Z,0.51
2017-12-29T03:46:51.321Z,0.50
2017-12-29T03:47:56.433Z,0.48
2017-12-29T03:49:01.280Z,0.44
2017-12-29T03:50:06.126Z,0.47
2017-12-29T03:51:10.941Z,0.51
2017-12-29T03:52:15.527Z,0.45
2017-12-29T03:53:20.115Z,0.44
2017-12-29T03:54:25.072Z,0.43
2017-12-29T03:55:29.798Z,0.43
2017-12-29T03:56:34.414Z,0.46
2017-12-29T03:57:39.187Z,0.41
2017-12-29T03:58:43.956Z,0.35
2017-12-29T03:59:48.763Z,0.40
2017-12-29T04:00:53.679Z,0.38
2017-12-29T04:01:58.271Z,0.44
2017-12-29T04:03:02.855Z,0.49
2017-12-29T04:04:07.492Z,0.42
2017-12-29T04:05:12.102Z,0.38
2017-12-29T04:06:16.845Z,0.32
2017-12-29T04:07:22.137Z,0.36
2017-12-29T04:08:27.851Z,0.32
2017-12-29T04:09:32.661Z,0.33
2017-12-29T04:10:37.443Z,0.34
2017-12-29T04:11:42.198Z,0.33
2017-12-29T04:12:46.961Z,0.34
2017-12-29T04:13:52.040Z,0.36
2017-12-29T04:14:56.800Z,0.35
2017-12-29T04:16:01.553Z,0.33
2017-12-29T04:17:06.355Z,0.32
2017-12-29T04:18:11.087Z,0.31
2017-12-29T04:19:15.836Z,0.31
2017-12-29T04:20:21.138Z,0.35
2017-12-29T04:21:25.889Z,0.35
2017-12-29T04:22:30.679Z,0.30
2017-12-29T04:23:35.439Z,0.29
2017-12-29T04:24:40.219Z,0.31
2017-12-29T04:25:45.010Z,0.35
2017-12-29T04:26:50.045Z,0.41
2017-12-29T04:27:54.812Z,0.36
2017-12-29T04:28:59.592Z,0.30
2017-12-29T04:30:04.373Z,0.39
2017-12-29T04:31:09.133Z,0.38
2017-12-29T04:32:13.921Z,0.38
2017-12-29T04:33:18.951Z,0.42
2017-12-29T04:34:23.701Z,0.41
2017-12-29T04:35:28.384Z,0.33
2017-12-29T04:36:33.084Z,0.34
2017-12-29T04:37:37.738Z,0.36
2017-12-29T04:38:42.422Z,0.31
2017-12-29T04:39:47.213Z,0.33
2017-12-29T04:40:51.703Z,0.34
2017-12-29T04:41:56.211Z,0.32
2017-12-29T04:43:00.715Z,0.31
2017-12-29T04:44:05.248Z,0.32
2017-12-29T04:45:09.775Z,0.35
2017-12-29T04:46:14.568Z,0.33
2017-12-29T04:47:19.191Z,0.34
2017-12-29T04:48:23.801Z,0.36
2017-12-29T04:49:28.442Z,0.33
2017-12-29T04:50:33.231Z,0.33
2017-12-29T04:51:38.039Z,0.26
2017-12-29T04:52:43.714Z,0.32
2017-12-29T04:53:48.571Z,0.29
2017-12-29T04:54:53.342Z,0.33
2017-12-29T04:55:58.301Z,0.29
2017-12-29T04:57:03.081Z,0.24
2017-12-29T04:58:07.862Z,0.22
2017-12-29T04:59:13.057Z,0.21
2017-12-29T05:00:17.881Z,0.25
2017-12-29T05:01:22.637Z,0.22
2017-12-29T05:02:27.442Z,0.22
2017-12-29T05:03:32.224Z,0.20
2017-12-29T05:04:36.987Z,0.25
2017-12-29T05:05:42.197Z,0.25
2017-12-29T05:06:46.960Z,0.28
2017-12-29T05:07:51.752Z,0.26
2017-12-29T05:08:56.621Z,0.29
2017-12-29T05:10:01.344Z,0.25
2017-12-29T05:11:06.134Z,0.29
2017-12-29T05:12:11.234Z,0.27
2017-12-29T05:13:16.164Z,0.29
2017-12-29T05:14:21.047Z,0.29
2017-12-29T05:15:25.893Z,0.23
2017-12-29T05:16:30.764Z,0.22
2017-12-29T05:17:35.617Z,0.23
2017-12-29T05:18:40.933Z,0.19
2017-12-29T05:19:45.920Z,0.22
2017-12-29T05:20:50.789Z,0.24
2017-12-29T05:21:55.483Z,0.25
2017-12-29T05:23:00.489Z,0.21
2017-12-29T05:24:06.125Z,0.18
2017-12-29T05:25:12.109Z,0.24
2017-12-29T05:26:17.344Z,0.27
2017-12-29T05:27:22.346Z,0.21
2017-12-29T05:28:27.400Z,0.16
2017-12-29T05:29:32.424Z,0.19
2017-12-29T05:30:38.355Z,0.27
2017-12-29T05:31:43.749Z,0.33
2017-12-29T05:32:48.736Z,0.19
2017-12-29T05:33:53.693Z,0.26
2017-12-29T05:34:58.896Z,0.28
2017-12-29T05:36:03.846Z,0.29
2017-12-29T05:37:08.844Z,0.30
2017-12-29T05:38:14.129Z,0.29
2017-12-29T05:39:19.123Z,0.28
2017-12-29T05:40:24.095Z,0.26
2017-12-29T05:41:29.089Z,0.24
2017-12-29T05:42:34.055Z,0.23
2017-12-29T05:43:39.045Z,0.21
2017-12-29T05:44:44.486Z,0.22
2017-12-29T05:45:49.472Z,0.21
2017-12-29T05:46:54.618Z,0.18
2017-12-29T05:47:59.672Z,0.19
2017-12-29T05:49:04.490Z,0.13
2017-12-29T05:50:09.381Z,0.14
2017-12-29T05:51:14.610Z,0.12
2017-12-29T05:52:19.571Z,0.14
2017-12-29T05:53:24.515Z,0.17
2017-12-29T05:54:29.445Z,0.15
2017-12-29T05:55:34.378Z,0.14
2017-12-29T05:56:39.363Z,0.15
2017-12-29T05:57:44.706Z,0.16
2017-12-29T05:58:49.669Z,0.12
2017-12-29T05:59:54.674Z,0.11
2017-12-29T06:00:59.576Z,0.09
2017-12-29T06:02:04.627Z,0.07
2017-12-29T06:03:09.614Z,0.08
2017-12-29T06:04:14.589Z,0.08
2017-12-29T06:05:19.523Z,0.10
2017-12-29T06:06:24.521Z,0.10
2017-12-29T06:07:29.750Z,0.08
2017-12-29T06:08:34.657Z,0.03
2017-12-29T06:09:39.571Z,0.07
2017-12-29T06:10:44.788Z,0.03
2017-12-29T06:11:49.666Z,0.06
2017-12-29T06:12:54.739Z,0.06
2017-12-29T06:13:59.693Z,0.02
2017-12-29T06:15:05.737Z,0.02
2017-12-29T06:16:10.670Z,0.02
2017-12-29T06:17:16.085Z,0.00
2017-12-29T06:18:21.108Z,-0.03
2017-12-29T06:19:26.106Z,-0.05
2017-12-29T06:20:32.283Z,-0.09
2017-12-29T06:21:37.221Z,-0.10
2017-12-29T06:22:42.716Z,-0.10
2017-12-29T06:23:48.061Z,-0.13
2017-12-29T06:24:52.994Z,-0.14
2017-12-29T06:25:58.052Z,-0.16
2017-12-29T06:27:03.024Z,-0.17
2017-12-29T06:28:08.048Z,-0.17
2017-12-29T06:29:13.072Z,-0.16
2017-12-29T06:30:18.540Z,-0.18
2017-12-29T06:31:23.472Z,-0.17
2017-12-29T06:32:28.469Z,-0.24
2017-12-29T06:33:33.413Z,-0.23
2017-12-29T06:34:40.302Z,-0.27
2017-12-29T06:35:45.261Z,-0.28
2017-12-29T06:36:50.445Z,-0.29
2017-12-29T06:37:55.480Z,-0.28
2017-12-29T06:39:00.520Z,-0.27
2017-12-29T06:40:04.877Z,-0.27
2017-12-29T06:41:09.950Z,-0.31
2017-12-29T06:42:15.903Z,-0.30
2017-12-29T06:43:21.389Z,-0.29
2017-12-29T06:44:26.398Z,-0.35
2017-12-29T06:45:31.414Z,-0.31
2017-12-29T06:46:36.407Z,-0.33
2017-12-29T06:47:41.389Z,-0.35
2017-12-29T06:48:46.423Z,-0.34
2017-12-29T06:49:51.849Z,-0.33
2017-12-29T06:50:56.950Z,-0.35
2017-12-29T06:52:01.947Z,-0.37
2017-12-29T06:53:06.945Z,-0.37
2017-12-29T06:54:11.786Z,-0.36
2017-12-29T06:55:16.774Z,-0.37
2017-12-29T06:56:21.873Z,-0.38
2017-12-29T06:57:26.821Z,-0.37
2017-12-29T06:58:31.836Z,-0.39
2017-12-29T06:59:36.852Z,-0.44
2017-12-29T07:00:41.848Z,-0.43
2017-12-29T07:01:47.843Z,-0.41
2017-12-29T07:02:53.157Z,-0.43
2017-12-29T07:03:58.419Z,-0.42
2017-12-29T07:05:03.510Z,-0.40
2017-12-29T07:06:08.500Z,-0.43
2017-12-29T07:07:13.468Z,-0.46
2017-12-29T07:08:18.464Z,-0.44
2017-12-29T07:09:23.793Z,-0.44
2017-12-29T07:10:28.729Z,-0.42
2017-12-29T07:11:33.671Z,-0.42
2017-12-29T07:12:38.567Z,-0.47
2017-12-29T07:13:43.844Z,-0.47
2017-12-29T07:14:48.794Z,-0.46
2017-12-29T07:15:54.056Z,-0.48
2017-12-29T07:17:00.551Z,-0.46
2017-12-29T07:18:05.502Z,-0.44
2017-12-29T07:19:10.437Z,-0.46
2017-12-29T07:20:15.425Z,-0.44
2017-12-29T07:21:20.373Z,-0.46
2017-12-29T07:22:25.672Z,-0.44
2017-12-29T07:23:30.683Z,-0.50
2017-12-29T07:24:35.624Z,-0.50
2017-12-29T07:25:40.533Z,-0.47
2017-12-29T07:26:45.429Z,-0.50
2017-12-29T07:27:50.273Z,-0.48
2017-12-29T07:28:55.357Z,-0.49
2017-12-29T07:30:00.286Z,-0.50
2017-12-29T07:31:05.085Z,-0.55
2017-12-29T07:32:10.076Z,-0.54
2017-12-29T07:33:15.063Z,-0.53
2017-12-29T07:34:20.773Z,-0.52
2017-12-29T07:35:26.032Z,-0.50
2017-12-29T07:36:31.022Z,-0.46
2017-12-29T07:37:35.953Z,-0.42
2017-12-29T07:38:41.001Z,-0.46
2017-12-29T07:39:45.914Z,-0.43
2017-12-29T07:40:50.763Z,-0.45
2017-12-29T07:41:55.924Z,-0.46
2017-12-29T07:43:00.718Z,-0.39
2017-12-29T07:44:05.508Z,-0.34
2017-12-29T07:45:10.415Z,-0.35
2017-12-29T07:46:15.187Z,-0.34
2017-12-29T07:47:20.642Z,-0.39
2017-12-29T07:48:26.700Z,-0.36
2017-12-29T07:49:31.485Z,-0.32
2017-12-29T07:50:36.497Z,-0.37
2017-12-29T07:51:41.291Z,-0.23
2017-12-29T07:52:47.073Z,-0.11
2017-12-29T07:53:51.794Z,0.02
2017-12-29T07:54:56.905Z,0.17
2017-12-29T07:56:02.414Z,0.13
2017-12-29T07:57:07.220Z,0.35
2017-12-29T07:58:12.628Z,0.51
2017-12-29T07:59:17.608Z,0.59
2017-12-29T08:00:22.478Z,0.80
2017-12-29T08:01:28.271Z,0.82
2017-12-29T08:02:33.172Z,1.05
2017-12-29T08:03:38.025Z,1.16
2017-12-29T08:04:42.864Z,1.27
2017-12-29T08:05:47.870Z,1.26
2017-12-29T08:06:52.712Z,1.32
2017-12-29T08:07:57.997Z,1.54
2017-12-29T08:09:02.966Z,1.51
2017-12-29T08:10:07.926Z,1.37
2017-12-29T08:11:13.867Z,1.43
2017-12-29T08:12:18.812Z,1.41
2017-12-29T08:13:23.963Z,1.61
2017-12-29T08:14:29.760Z,1.69
2017-12-29T08:15:34.759Z,1.66
2017-12-29T08:16:39.786Z,1.88
2017-12-29T08:17:44.844Z,1.89
2017-12-29T08:18:49.844Z,2.05
2017-12-29T08:19:54.836Z,2.24
2017-12-29T08:21:00.280Z,1.97
2017-12-29T08:22:05.286Z,2.19
2017-12-29T08:23:10.291Z,2.55
2017-12-29T08:24:15.372Z,2.76
2017-12-29T08:25:20.375Z,3.05
2017-12-29T08:26:25.353Z,3.08
2017-12-29T08:27:30.777Z,2.69
2017-12-29T08:28:35.824Z,2.67
2017-12-29T08:29:40.762Z,2.65
2017-12-29T08:30:45.757Z,2.59
2017-12-29T08:31:50.867Z,2.73
2017-12-29T08:32:55.789Z,2.74
2017-12-29T08:34:01.099Z,2.54
2017-12-29T08:35:06.061Z,2.62
2017-12-29T08:36:11.085Z,2.77
2017-12-29T08:37:16.103Z,2.42
2017-12-29T08:38:21.116Z,1.66
2017-12-29T08:39:26.134Z,1.40
2017-12-29T08:40:31.390Z,1.34
2017-12-29T08:41:37.324Z,1.37
2017-12-29T08:42:42.332Z,1.35
2017-12-29T08:43:47.809Z,1.28
2017-12-29T08:44:52.798Z,1.23
2017-12-29T08:45:57.764Z,1.40
2017-12-29T08:47:03.806Z,1.25
2017-12-29T08:48:08.822Z,1.34
2017-12-29T08:49:13.815Z,1.59
2017-12-29T08:50:18.675Z,1.73
2017-12-29T08:51:23.587Z,1.93
2017-12-29T08:52:28.446Z,1.66
2017-12-29T08:53:33.698Z,1.68
2017-12-29T08:54:38.633Z,2.02
2017-12-29T08:55:43.472Z,2.68
2017-12-29T08:56:48.259Z,3.33
2017-12-29T08:57:53.178Z,3.14
2017-12-29T08:58:58.525Z,2.97
2017-12-29T09:00:03.689Z,2.81
2017-12-29T09:01:08.585Z,2.82
2017-12-29T09:02:13.497Z,3.10
2017-12-29T09:03:18.404Z,2.49
2017-12-29T09:04:23.264Z,2.86
2017-12-29T09:05:28.171Z,2.82
2017-12-29T09:06:33.502Z,2.89
2017-12-29T09:07:38.510Z,2.73
2017-12-29T09:08:43.788Z,3.10
2017-12-29T09:09:48.826Z,3.78
2017-12-29T09:10:53.766Z,3.76
2017-12-29T09:11:58.858Z,3.59
2017-12-29T09:13:04.142Z,3.66
2017-12-29T09:14:09.118Z,3.15
2017-12-29T09:15:14.078Z,4.03
2017-12-29T09:16:19.173Z,4.29
2017-12-29T09:17:24.229Z,4.23
2017-12-29T09:18:29.276Z,4.26
2017-12-29T09:19:34.832Z,4.47
2017-12-29T09:20:40.347Z,4.43
2017-12-29T09:21:45.294Z,4.34
2017-12-29T09:22:50.318Z,4.12
2017-12-29T09:23:55.331Z,3.87
2017-12-29T09:25:00.376Z,3.08
2017-12-29T09:26:05.609Z,3.35
2017-12-29T09:27:10.597Z,3.85
2017-12-29T09:28:15.527Z,4.11
2017-12-29T09:29:20.444Z,3.88
2017-12-29T09:30:25.449Z,4.23
2017-12-29T09:31:30.355Z,3.94
2017-12-29T09:32:35.484Z,3.23
2017-12-29T09:33:40.433Z,2.91
2017-12-29T09:34:45.406Z,3.55
2017-12-29T09:35:50.327Z,2.70
2017-12-29T09:36:55.898Z,3.06
2017-12-29T09:38:00.773Z,3.89
2017-12-29T09:39:06.603Z,4.47
2017-12-29T09:40:11.521Z,3.93
2017-12-29T09:41:16.346Z,4.35
2017-12-29T09:42:21.122Z,4.84
2017-12-29T09:43:25.954Z,4.62
2017-12-29T09:44:30.685Z,4.76
2017-12-29T09:45:35.775Z,4.30
2017-12-29T09:46:40.615Z,4.89
2017-12-29T09:47:45.554Z,4.85
2017-12-29T09:48:50.504Z,4.10
2017-12-29T09:49:55.474Z,4.42
2017-12-29T09:51:00.425Z,3.77
2017-12-29T09:52:05.688Z,4.18
2017-12-29T09:53:10.663Z,3.99
2017-12-29T09:54:15.663Z,4.23
2017-12-29T09:55:20.696Z,4.62
2017-12-29T09:56:25.705Z,4.45
2017-12-29T09:57:30.704Z,4.66
2017-12-29T09:58:35.750Z,4.58
2017-12-29T09:59:40.739Z,3.99
2017-12-29T10:00:45.607Z,3.87
2017-12-29T10:01:50.432Z,3.60
2017-12-29T10:02:55.233Z,3.95
2017-12-29T10:04:00.493Z,3.49
2017-12-29T10:05:05.027Z,4.24
2017-12-29T10:06:10.033Z,4.02
2017-12-29T10:07:15.039Z,3.68
2017-12-29T10:08:20.689Z,4.00
2017-12-29T10:09:25.643Z,4.40
2017-12-29T10:10:31.125Z,4.43
2017-12-29T10:11:36.178Z,3.83
2017-12-29T10:12:41.474Z,3.85
2017-12-29T10:13:46.451Z,3.63
2017-12-29T10:14:51.392Z,4.88
2017-12-29T10:15:56.350Z,5.24
2017-12-29T10:17:02.019Z,5.39
2017-12-29T10:18:06.919Z,4.62
2017-12-29T10:19:11.778Z,4.82
2017-12-29T10:20:16.979Z,5.00
2017-12-29T10:21:22.537Z,4.72
2017-12-29T10:22:27.644Z,5.07
2017-12-29T10:23:34.080Z,4.30
2017-12-29T10:24:39.091Z,4.23
2017-12-29T10:25:44.088Z,3.97
2017-12-29T10:26:49.126Z,4.59
2017-12-29T10:27:54.119Z,4.81
2017-12-29T10:28:59.101Z,4.95
2017-12-29T10:30:04.413Z,4.99
2017-12-29T10:31:09.593Z,3.36
2017-12-29T10:32:14.570Z,3.81
2017-12-29T10:33:19.552Z,4.57
2017-12-29T10:34:24.725Z,4.88
2017-12-29T10:35:29.770Z,4.01
2017-12-29T10:36:35.037Z,3.81
2017-12-29T10:37:40.050Z,3.77
2017-12-29T10:38:45.133Z,4.62
2017-12-29T10:39:50.181Z,4.27
2017-12-29T10:40:55.557Z,4.40
2017-12-29T10:42:00.599Z,3.98
2017-12-29T10:43:05.952Z,4.54
2017-12-29T10:44:11.048Z,4.13
2017-12-29T10:45:17.007Z,4.04
2017-12-29T10:46:22.017Z,3.68
2017-12-29T10:47:27.802Z,3.52
2017-12-29T10:48:32.794Z,2.69
2017-12-29T10:49:38.984Z,3.18
2017-12-29T10:50:43.976Z,3.63
2017-12-29T10:51:48.965Z,4.01
2017-12-29T10:52:54.173Z,4.99
2017-12-29T10:53:59.162Z,5.19
2017-12-29T10:55:04.169Z,4.93
2017-12-29T10:56:10.176Z,4.45
2017-12-29T10:57:15.227Z,4.52
2017-12-29T10:58:20.309Z,4.90
2017-12-29T10:59:25.366Z,5.73
2017-12-29T11:00:30.411Z,5.82
2017-12-29T11:01:35.381Z,5.47
2017-12-29T11:02:40.672Z,5.58
2017-12-29T11:03:45.718Z,5.38
2017-12-29T11:04:50.810Z,5.74
2017-12-29T11:05:55.807Z,5.54
2017-12-29T11:07:00.814Z,5.63
2017-12-29T11:08:05.811Z,5.28
2017-12-29T11:09:11.091Z,5.22
2017-12-29T11:10:16.169Z,5.72
2017-12-29T11:11:21.182Z,5.12
2017-12-29T11:12:26.140Z,4.78
2017-12-29T11:13:31.126Z,4.55
2017-12-29T11:14:36.228Z,3.75
2017-12-29T11:15:41.647Z,2.97
2017-12-29T11:16:46.715Z,2.82
2017-12-29T11:17:51.667Z,2.71
2017-12-29T11:18:56.715Z,2.53
2017-12-29T11:20:03.246Z,2.43
2017-12-29T11:21:08.263Z,2.34
2017-12-29T11:22:13.672Z,2.36
2017-12-29T11:23:18.729Z,2.23
2017-12-29T11:24:23.626Z,2.04
2017-12-29T11:25:28.703Z,2.09
2017-12-29T11:26:33.622Z,2.07
2017-12-29T11:27:38.594Z,2.04
2017-12-29T11:28:43.789Z,2.05
2017-12-29T11:29:48.649Z,2.02
2017-12-29T11:30:53.676Z,2.09
2017-12-29T11:31:58.649Z,2.24
2017-12-29T11:33:03.658Z,2.37
2017-12-29T11:34:08.908Z,2.67
2017-12-29T11:35:14.596Z,3.05
2017-12-29T11:36:19.572Z,3.43
2017-12-29T11:37:24.615Z,2.60
2017-12-29T11:38:29.625Z,2.84
2017-12-29T11:39:35.232Z,2.58
2017-12-29T11:40:41.200Z,2.37
2017-12-29T11:41:46.558Z,2.35
2017-12-29T11:42:51.946Z,2.53
2017-12-29T11:43:57.030Z,2.51
2017-12-29T11:45:02.009Z,2.43
2017-12-29T11:46:07.783Z,2.46
2017-12-29T11:47:12.770Z,2.30
2017-12-29T11:48:18.225Z,2.26
2017-12-29T11:49:23.224Z,2.24
2017-12-29T11:50:28.238Z,2.02
2017-12-29T11:51:33.273Z,2.11
2017-12-29T11:52:38.315Z,2.02
2017-12-29T11:53:43.409Z,2.13
2017-12-29T11:54:48.902Z,1.91
2017-12-29T11:55:53.903Z,1.85
2017-12-29T11:56:59.349Z,1.82
2017-12-29T11:58:04.550Z,1.82
2017-12-29T11:59:09.572Z,1.74
2017-12-29T12:00:14.785Z,1.82
2017-12-29T12:01:20.232Z,1.75
2017-12-29T12:02:25.257Z,1.81
2017-12-29T12:03:30.395Z,1.83
2017-12-29T12:04:35.876Z,1.93
2017-12-29T12:05:40.906Z,2.00
2017-12-29T12:06:45.854Z,1.94
2017-12-29T12:07:51.164Z,1.95
2017-12-29T12:08:56.201Z,1.96
2017-12-29T12:10:01.234Z,1.91
2017-12-29T12:11:06.315Z,1.87
2017-12-29T12:12:11.283Z,1.73
2017-12-29T12:13:16.876Z,1.75
2017-12-29T12:14:22.885Z,1.86
2017-12-29T12:15:28.011Z,1.78
2017-12-29T12:16:32.981Z,1.77
2017-12-29T12:17:38.150Z,1.79
2017-12-29T12:18:43.125Z,1.83
2017-12-29T12:19:48.130Z,1.80
2017-12-29T12:20:54.448Z,1.73
2017-12-29T12:21:59.281Z,1.69
2017-12-29T12:23:04.143Z,1.71
2017-12-29T12:24:08.959Z,1.74
2017-12-29T12:25:13.753Z,1.81
2017-12-29T12:26:18.616Z,1.82
2017-12-29T12:27:23.879Z,1.87
2017-12-29T12:28:28.902Z,1.82
2017-12-29T12:29:34.311Z,1.73
2017-12-29T12:30:39.320Z,1.71
2017-12-29T12:31:44.404Z,1.76
2017-12-29T12:32:49.376Z,1.86
2017-12-29T12:33:54.680Z,1.92
2017-12-29T12:34:59.730Z,1.93
2017-12-29T12:36:04.731Z,2.00
2017-12-29T12:37:09.744Z,1.95
2017-12-29T12:38:14.722Z,1.81
2017-12-29T12:39:19.745Z,1.75
2017-12-29T12:40:25.093Z,1.73
2017-12-29T12:41:30.082Z,1.75
2017-12-29T12:42:35.072Z,1.76
2017-12-29T12:43:40.667Z,1.69
2017-12-29T12:44:45.625Z,1.69
2017-12-29T12:45:50.617Z,1.67
2017-12-29T12:46:56.104Z,1.66
2017-12-29T12:48:01.345Z,1.70
2017-12-29T12:49:06.371Z,1.74
2017-12-29T12:50:11.409Z,1.79
2017-12-29T12:51:16.318Z,1.75
2017-12-29T12:52:21.269Z,1.75
2017-12-29T12:53:26.588Z,1.77
2017-12-29T12:54:31.481Z,1.80
2017-12-29T12:55:36.371Z,1.77
2017-12-29T12:56:41.171Z,1.76
2017-12-29T12:57:46.040Z,1.70
2017-12-29T12:58:50.917Z,1.66
2017-12-29T12:59:56.219Z,1.63
2017-12-29T13:01:01.139Z,1.61
2017-12-29T13:02:06.056Z,1.67
2017-12-29T13:03:11.053Z,1.71
2017-12-29T13:04:16.388Z,1.62
2017-12-29T13:05:21.363Z,1.63
2017-12-29T13:06:26.686Z,1.59
2017-12-29T13:07:31.813Z,1.60
2017-12-29T13:08:36.826Z,1.61
2017-12-29T13:09:41.861Z,1.59
2017-12-29T13:10:46.902Z,1.58
2017-12-29T13:11:51.790Z,1.62
2017-12-29T13:12:56.989Z,1.60
2017-12-29T13:14:01.922Z,1.59
2017-12-29T13:15:06.945Z,1.59
2017-12-29T13:16:11.819Z,1.64
2017-12-29T13:17:16.717Z,1.67
2017-12-29T13:18:21.570Z,1.61
2017-12-29T13:19:26.840Z,1.64
2017-12-29T13:20:31.804Z,1.62
2017-12-29T13:21:36.802Z,1.63
2017-12-29T13:22:43.581Z,1.71
2017-12-29T13:23:49.203Z,1.66
2017-12-29T13:24:54.828Z,1.62
2017-12-29T13:26:00.135Z,1.58
2017-12-29T13:27:05.173Z,1.55
2017-12-29T13:28:10.137Z,1.58
2017-12-29T13:29:15.592Z,1.57
2017-12-29T13:30:20.828Z,1.57
2017-12-29T13:31:25.828Z,1.54
2017-12-29T13:32:31.313Z,1.54
2017-12-29T13:33:36.361Z,1.50
2017-12-29T13:34:41.408Z,1.49
2017-12-29T13:35:47.013Z,1.47
2017-12-29T13:36:52.022Z,1.51
2017-12-29T13:37:57.057Z,1.55
2017-12-29T13:39:02.552Z,1.54
2017-12-29T13:40:07.583Z,1.47
2017-12-29T13:41:12.698Z,1.50
2017-12-29T13:42:17.607Z,1.49
2017-12-29T13:43:22.549Z,1.49
2017-12-29T13:44:27.592Z,1.50
2017-12-29T13:45:33.040Z,1.58
2017-12-29T13:46:38.151Z,1.47
2017-12-29T13:47:43.191Z,1.46
2017-12-29T13:48:48.151Z,1.48
2017-12-29T13:49:53.210Z,1.51
2017-12-29T13:50:58.082Z,1.45
2017-12-29T13:52:03.383Z,1.44
2017-12-29T13:53:08.288Z,1.45
2017-12-29T13:54:13.988Z,1.49
2017-12-29T13:55:18.810Z,1.46
2017-12-29T13:56:23.679Z,1.45
2017-12-29T13:57:28.609Z,1.44
2017-12-29T13:58:34.826Z,1.41
2017-12-29T13:59:39.788Z,1.43
2017-12-29T14:00:44.637Z,1.44
2017-12-29T14:01:50.525Z,1.36
2017-12-29T14:02:55.335Z,1.33
2017-12-29T14:04:00.127Z,1.35
2017-12-29T14:05:05.408Z,1.37
2017-12-29T14:06:10.379Z,1.33
2017-12-29T14:07:15.414Z,1.26
2017-12-29T14:08:20.311Z,1.06
2017-12-29T14:09:25.734Z,1.04
2017-12-29T14:10:30.773Z,0.99
2017-12-29T14:11:35.910Z,0.94
2017-12-29T14:12:40.756Z,0.96
2017-12-29T14:13:45.624Z,0.94
2017-12-29T14:14:50.552Z,0.89
2017-12-29T14:15:55.496Z,0.89
2017-12-29T14:17:00.577Z,0.81
2017-12-29T14:18:05.867Z,0.80
2017-12-29T14:19:10.778Z,0.79
2017-12-29T14:20:15.703Z,0.79
2017-12-29T14:21:20.625Z,0.78
2017-12-29T14:22:25.595Z,0.66